Chula Vista, California
Current Conditions -  °F | °C
As of 8:56 AM on Thursday 30 Oct 2014 (Local Time) from KNRS Reporting Station
Broken Clouds Broken Clouds  
Wind Chill: 62°   Ceiling: 20000
Heat Index: 62°   Visibility: 7mi
Dew Point: 48°   Wind: 5mph
Humidity: 60%   Direction: 90°E
Pressure: 29.99"   Gusts: NA
Location:  32.64°N, 117.08°W
Report Text: KNRS 301556Z 09004KT 7SM FEW006 BKN200 17/09 A2999 RMK AO2 SLP156 T01670089 $
Loading
Personal Weather Stations






























Interactive Weather Map
Tropical Storm Tracking
New forecast layout! Learn more

10-Day Weather Forecast

Advertisements
Track Severe Weather on mobile